Palmers Crossing, Mississippi
Current Conditions -  °F | °C
As of 4:53 PM on Friday 28 Nov 2014 (Local Time) from KHBG Reporting Station
Clear Clear  
Wind Chill: 54°   Ceiling: Unl
Heat Index: 54°   Visibility: 10mi
Dew Point: 32°   Wind: 3mph
Humidity: 43%   Direction: 150°SSE
Pressure: 30.29"   Gusts: NA
Location:  31.1996°N, 89.2694°W
Report Text: KHBG 282253Z AUTO 15003KT 10SM CLR 12/00 A3029 RMK AO2 SLP256 T01220000
Loading
Personal Weather Stations






























Interactive Weather Map New forecast layout! Learn more

10-Day Weather Forecast

Advertisements
Track Severe Weather on mobile